Time;durP1;ratioP1;P1;durP2;ratioP2;P2;SDS_P1;SDS_P2;PMS_P1;PMS_P2;Temp;Humidity;BMP_temperature;BMP_pressure;BME280_temperature;BME280_humidity;BME280_pressure;Samples;Min_cycle;Max_cycle;Signal;HPM_P1;HPM_P2
2023/12/15 00:01:03;;;;;;;5.32;3.00;;;;;;;22.82;37.71;100643.41;4988013;28;20101;-47
2023/12/15 00:03:29;;;;;;;5.45;3.13;;;;;;;22.87;37.60;100645.56;4988894;28;20034;-47
2023/12/15 00:05:55;;;;;;;5.63;3.08;;;;;;;22.99;37.50;100650.16;5012111;28;20452;-48
2023/12/15 00:08:21;;;;;;;5.22;2.85;;;;;;;22.98;37.47;100647.88;4992982;28;20045;-47
2023/12/15 00:10:46;;;;;;;4.80;2.70;;;;;;;22.97;37.34;100658.13;4986818;28;20392;-47
2023/12/15 00:13:11;;;;;;;5.25;3.00;;;;;;;22.99;37.49;100652.16;4986056;28;20517;-46
2023/12/15 00:15:37;;;;;;;4.80;2.92;;;;;;;22.99;37.30;100658.41;4990413;28;20014;-47
2023/12/15 00:18:02;;;;;;;5.03;2.83;;;;;;;22.98;37.40;100659.63;4991276;28;20033;-48
2023/12/15 00:20:28;;;;;;;5.13;3.00;;;;;;;22.98;37.30;100661.66;4992969;28;20041;-48
2023/12/15 00:22:54;;;;;;;5.65;2.60;;;;;;;22.98;37.27;100667.16;4989722;28;20030;-47
2023/12/15 00:25:20;;;;;;;4.90;2.70;;;;;;;22.99;37.12;100669.44;4987840;28;20026;-48
2023/12/15 00:27:45;;;;;;;4.72;2.55;;;;;;;22.97;37.33;100665.63;4985858;28;20494;-47
2023/12/15 00:30:11;;;;;;;5.13;2.88;;;;;;;22.97;37.53;100671.91;4990210;28;20040;-48
2023/12/15 00:32:36;;;;;;;5.07;2.83;;;;;;;23.04;37.26;100665.31;4994751;28;20100;-48
2023/12/15 00:35:02;;;;;;;5.30;3.00;;;;;;;22.99;37.22;100669.44;4992691;28;20034;-49
2023/12/15 00:37:27;;;;;;;5.60;2.85;;;;;;;22.96;37.35;100670.38;4986258;28;20030;-48
2023/12/15 00:39:53;;;;;;;4.70;2.60;;;;;;;22.99;37.55;100674.94;4990406;28;20030;-48
2023/12/15 00:42:18;;;;;;;5.55;2.85;;;;;;;22.98;37.27;100680.94;4989660;28;20091;-46
2023/12/15 00:44:43;;;;;;;4.72;2.50;;;;;;;22.96;37.46;100684.13;4990274;28;20053;-47
2023/12/15 00:47:09;;;;;;;5.68;2.97;;;;;;;22.90;37.34;100677.69;4995288;28;20022;-48
2023/12/15 00:49:34;;;;;;;5.20;3.00;;;;;;;22.91;37.13;100687.47;4991430;28;20473;-47
2023/12/15 00:51:59;;;;;;;5.35;3.00;;;;;;;22.85;37.21;100689.28;4983719;28;20034;-47
2023/12/15 00:54:25;;;;;;;4.97;2.65;;;;;;;22.87;37.22;100691.59;4987199;28;20651;-49
2023/12/15 00:56:50;;;;;;;4.72;2.80;;;;;;;22.92;37.18;100686.25;4990829;28;20098;-48
2023/12/15 00:59:16;;;;;;;4.78;2.63;;;;;;;22.91;37.44;100700.47;4996961;28;20036;-47
2023/12/15 01:01:41;;;;;;;5.60;2.60;;;;;;;22.94;37.23;100703.09;4988465;28;20661;-49
2023/12/15 01:04:07;;;;;;;4.93;2.60;;;;;;;22.89;37.33;100709.19;4987218;28;20030;-47
2023/12/15 01:06:32;;;;;;;4.90;2.50;;;;;;;22.89;37.38;100713.94;4994392;28;20102;-47
2023/12/15 01:08:57;;;;;;;4.70;2.50;;;;;;;22.97;37.37;100718.72;4995965;28;20087;-51
2023/12/15 01:11:23;;;;;;;4.63;2.42;;;;;;;22.84;37.49;100725.53;4993541;28;20028;-48
2023/12/15 01:13:48;;;;;;;4.60;2.42;;;;;;;22.89;37.54;100720.19;4989361;28;20048;-48
2023/12/15 01:16:13;;;;;;;4.90;2.53;;;;;;;22.92;37.29;100716.53;4983926;28;20570;-47
2023/12/15 01:18:39;;;;;;;4.30;2.40;;;;;;;22.90;37.27;100727.25;4989183;28;20026;-48
2023/12/15 01:21:05;;;;;;;4.55;2.50;;;;;;;22.93;37.26;100722.81;4995078;28;20530;-47
2023/12/15 01:23:31;;;;;;;4.30;2.47;;;;;;;22.89;37.29;100727.69;4997170;28;20560;-52
2023/12/15 01:25:56;;;;;;;4.70;2.35;;;;;;;22.92;37.50;100735.81;4991465;28;20285;-47
2023/12/15 01:28:22;;;;;;;4.43;2.30;;;;;;;22.92;37.36;100733.06;4988054;28;20026;-47
2023/12/15 01:30:47;;;;;;;4.65;2.40;;;;;;;22.86;37.56;100740.38;4996695;28;20056;-48
2023/12/15 01:33:12;;;;;;;4.05;2.33;;;;;;;22.86;37.07;100734.88;4987213;28;20417;-47
2023/12/15 01:35:38;;;;;;;4.32;2.40;;;;;;;22.87;37.10;100744.66;4990333;28;20041;-47
2023/12/15 01:38:03;;;;;;;5.28;2.65;;;;;;;22.89;37.26;100750.47;4988469;28;20030;-47
2023/12/15 01:40:28;;;;;;;4.63;2.38;;;;;;;22.86;37.41;100758.88;4985760;28;20026;-48
2023/12/15 01:42:58;;;;;;;4.70;2.42;;;;;;;22.88;37.38;100751.69;4987684;28;20401;-47
2023/12/15 01:45:23;;;;;;;4.28;2.30;;;;;;;22.84;37.37;100756.56;4991620;28;20030;-48
2023/12/15 01:47:49;;;;;;;4.43;2.13;;;;;;;22.90;37.17;100754.78;4987855;28;20026;-46
2023/12/15 01:50:14;;;;;;;4.22;2.13;;;;;;;22.93;37.09;100751.13;4987164;28;20026;-47
2023/12/15 01:52:39;;;;;;;4.63;2.47;;;;;;;22.91;37.27;100750.81;4983013;28;20484;-48
2023/12/15 01:55:05;;;;;;;4.05;2.20;;;;;;;22.93;37.41;100758.59;4990503;28;20036;-47
2023/12/15 01:57:30;;;;;;;4.22;2.33;;;;;;;22.85;37.43;100757.34;4987101;28;20022;-47
2023/12/15 01:59:56;;;;;;;4.20;2.17;;;;;;;22.84;37.13;100756.56;4990247;28;20030;-48
2023/12/15 02:02:21;;;;;;;4.43;2.20;;;;;;;22.82;37.49;100761.00;4986152;28;20681;-48
2023/12/15 02:04:47;;;;;;;4.60;2.30;;;;;;;22.84;37.46;100770.34;4986114;28;20035;-48
2023/12/15 02:07:12;;;;;;;4.10;2.15;;;;;;;22.86;37.60;100767.91;4987807;28;20087;-49
2023/12/15 02:09:38;;;;;;;4.30;2.25;;;;;;;22.82;37.34;100770.00;4991528;28;20622;-47
2023/12/15 02:12:03;;;;;;;4.13;2.05;;;;;;;22.87;37.38;100774.16;4991731;28;20026;-47
2023/12/15 02:14:29;;;;;;;4.53;2.10;;;;;;;22.87;37.38;100782.44;4998624;28;20030;-47
2023/12/15 02:16:55;;;;;;;4.25;2.10;;;;;;;22.88;37.29;100797.72;4995317;28;20031;-49
2023/12/15 02:19:20;;;;;;;4.10;2.30;;;;;;;22.84;37.60;100803.38;4994571;28;20030;-48
2023/12/15 02:21:45;;;;;;;4.40;2.10;;;;;;;22.91;37.24;100802.34;4994581;28;20393;-49
2023/12/15 02:24:11;;;;;;;4.88;2.30;;;;;;;22.79;37.51;100809.44;4996458;28;20485;-49
2023/12/15 02:26:36;;;;;;;4.05;1.90;;;;;;;22.87;37.31;100813.47;4991691;28;20046;-47
2023/12/15 02:29:01;;;;;;;4.30;1.90;;;;;;;22.88;37.57;100815.03;4993742;28;20030;-47
2023/12/15 02:31:27;;;;;;;4.63;2.30;;;;;;;22.88;37.32;100817.00;4994512;28;20044;-47
2023/12/15 02:33:53;;;;;;;4.18;2.15;;;;;;;22.85;37.38;100810.41;4997639;28;20059;-46
2023/12/15 02:36:22;;;;;;;3.78;1.98;;;;;;;22.89;37.24;100822.06;4997239;28;20042;-51
2023/12/15 02:38:47;;;;;;;4.00;1.90;;;;;;;22.85;37.53;100810.41;4995548;28;20057;-48
2023/12/15 02:41:12;;;;;;;4.03;2.00;;;;;;;22.91;37.59;100811.38;4997443;28;20516;-47
2023/12/15 02:43:38;;;;;;;4.50;1.92;;;;;;;22.95;37.22;100817.50;4992143;28;20031;-47
2023/12/15 02:46:04;;;;;;;3.92;1.90;;;;;;;22.92;37.32;100821.16;4993037;28;20486;-47
2023/12/15 02:48:30;;;;;;;3.83;2.00;;;;;;;22.87;37.34;100818.22;4997306;28;20138;-52
2023/12/15 02:50:55;;;;;;;4.18;2.10;;;;;;;22.88;36.88;100828.78;4994275;28;20026;-47
2023/12/15 02:53:20;;;;;;;3.95;1.80;;;;;;;22.97;37.18;100826.09;4991077;28;20018;-48
2023/12/15 02:55:46;;;;;;;4.20;2.17;;;;;;;22.96;37.18;100835.56;4992139;28;20221;-47
2023/12/15 02:58:11;;;;;;;3.75;1.80;;;;;;;22.87;37.27;100832.75;4994499;28;20030;-48
2023/12/15 03:00:36;;;;;;;4.10;2.00;;;;;;;22.94;37.29;100840.75;4993959;28;20031;-50
2023/12/15 03:03:02;;;;;;;4.00;1.85;;;;;;;22.95;37.08;100844.28;4995787;28;20371;-48
2023/12/15 03:05:27;;;;;;;3.90;2.10;;;;;;;22.96;37.21;100838.31;4993975;28;20026;-48
2023/12/15 03:07:52;;;;;;;4.10;1.90;;;;;;;22.96;37.07;100841.06;4990744;28;20038;-48
2023/12/15 03:10:18;;;;;;;4.43;1.95;;;;;;;22.94;36.75;100837.22;4986688;28;20034;-47
2023/12/15 03:12:43;;;;;;;4.43;2.10;;;;;;;22.99;36.82;100845.66;4996401;28;20068;-49
2023/12/15 03:15:09;;;;;;;4.30;2.10;;;;;;;22.92;36.90;100845.94;4997706;28;20544;-48
2023/12/15 03:17:34;;;;;;;3.83;1.83;;;;;;;22.91;37.12;100849.13;4993937;28;20038;-48
2023/12/15 03:19:59;;;;;;;4.40;2.10;;;;;;;22.85;37.00;100848.94;4993830;28;20056;-48
2023/12/15 03:22:25;;;;;;;4.00;1.90;;;;;;;22.84;37.30;100849.41;4989852;28;20030;-47
2023/12/15 03:24:50;;;;;;;3.65;1.80;;;;;;;22.90;37.20;100848.38;4990491;28;20042;-47
2023/12/15 03:27:15;;;;;;;4.20;1.90;;;;;;;22.92;37.03;100848.69;4994947;28;20033;-50
2023/12/15 03:29:41;;;;;;;4.10;1.90;;;;;;;22.88;37.29;100856.31;4994048;28;20402;-47
2023/12/15 03:32:06;;;;;;;4.35;1.92;;;;;;;22.81;37.50;100853.03;4987612;28;20026;-47
2023/12/15 03:34:32;;;;;;;4.07;2.10;;;;;;;22.80;37.48;100857.78;4988125;28;20035;-48
2023/12/15 03:36:57;;;;;;;3.88;1.92;;;;;;;22.85;37.54;100870.19;4991467;28;20031;-48
2023/12/15 03:39:22;;;;;;;3.50;1.70;;;;;;;22.93;37.61;100872.25;4993529;28;20026;-49
2023/12/15 03:41:47;;;;;;;3.95;1.77;;;;;;;22.83;37.60;100875.38;5004573;28;20619;-48
2023/12/15 03:44:13;;;;;;;5.05;1.80;;;;;;;22.84;37.56;100874.94;4988796;28;20030;-47
2023/12/15 03:46:38;;;;;;;4.15;1.90;;;;;;;22.82;37.74;100871.88;4993432;28;20033;-48
2023/12/15 03:49:04;;;;;;;3.55;1.70;;;;;;;22.82;37.74;100869.13;4995884;28;20568;-49
2023/12/15 03:51:29;;;;;;;3.90;1.80;;;;;;;22.89;37.52;100870.84;4987505;28;20144;-50
2023/12/15 03:53:54;;;;;;;3.95;1.88;;;;;;;22.81;37.71;100869.56;4995111;28;20026;-50
2023/12/15 03:56:24;;;;;;;4.38;1.92;;;;;;;22.82;37.56;100871.88;4994701;28;20409;-48
2023/12/15 03:58:49;;;;;;;3.83;1.88;;;;;;;22.75;37.80;100869.38;4994223;28;20156;-47
2023/12/15 04:01:14;;;;;;;5.78;1.90;;;;;;;22.79;37.75;100864.50;4991556;28;20037;-46
2023/12/15 04:03:40;;;;;;;4.03;1.90;;;;;;;22.88;37.54;100878.34;4992095;28;20033;-47
2023/12/15 04:06:08;;;;;;;3.70;1.70;;;;;;;22.88;37.83;100883.06;4994030;28;20033;-47
2023/12/15 04:08:33;;;;;;;3.53;1.75;;;;;;;22.89;37.63;100881.84;4996340;28;20026;-48
2023/12/15 04:10:59;;;;;;;3.40;1.60;;;;;;;22.83;37.86;100878.91;4988679;28;20551;-46
2023/12/15 04:13:24;;;;;;;3.47;1.73;;;;;;;22.84;37.81;100874.19;4988369;28;20052;-47
2023/12/15 04:15:49;;;;;;;3.67;1.80;;;;;;;22.94;37.56;100876.53;4995368;28;20034;-48
2023/12/15 04:18:16;;;;;;;3.53;1.63;;;;;;;22.93;37.65;100883.28;4988730;28;20030;-48
2023/12/15 04:20:42;;;;;;;3.80;1.90;;;;;;;22.97;37.44;100880.38;4984969;28;20110;-50
2023/12/15 04:23:07;;;;;;;4.00;1.85;;;;;;;22.97;37.75;100897.69;4984351;28;20034;-47
2023/12/15 04:25:32;;;;;;;3.97;1.80;;;;;;;22.97;37.61;100897.69;4989543;28;20034;-50
2023/12/15 04:27:58;;;;;;;4.00;1.80;;;;;;;22.93;37.84;100899.03;4991992;28;20101;-47
2023/12/15 04:30:23;;;;;;;3.33;1.58;;;;;;;22.96;37.58;100901.66;4992607;28;20027;-46
2023/12/15 04:32:48;;;;;;;4.00;1.95;;;;;;;22.98;37.47;100904.69;4988542;28;20017;-47
2023/12/15 04:35:14;;;;;;;3.63;1.90;;;;;;;22.97;37.80;100903.19;4981349;28;20034;-49
2023/12/15 04:37:43;;;;;;;3.58;1.70;;;;;;;23.10;37.30;100905.09;4989042;28;20027;-48
2023/12/15 04:40:08;;;;;;;3.63;1.70;;;;;;;23.05;37.45;100903.66;4993563;28;20393;-48
2023/12/15 04:42:34;;;;;;;3.75;1.70;;;;;;;23.09;37.95;100906.31;4988588;28;20121;-47
2023/12/15 04:44:59;;;;;;;3.42;1.65;;;;;;;23.18;37.31;100918.13;4989397;28;20029;-47
2023/12/15 04:47:24;;;;;;;3.47;1.73;;;;;;;23.13;37.28;100927.00;4985779;28;20492;-48
2023/12/15 04:49:50;;;;;;;4.35;1.90;;;;;;;23.21;37.35;100935.75;4984231;28;20021;-48
2023/12/15 04:52:15;;;;;;;3.67;1.58;;;;;;;23.20;37.24;100931.44;4993500;28;20024;-48
2023/12/15 04:54:40;;;;;;;3.35;1.60;;;;;;;23.17;37.52;100933.13;4986983;28;20080;-49
2023/12/15 04:57:06;;;;;;;3.30;1.60;;;;;;;23.23;37.17;100936.06;4991146;28;20466;-47
2023/12/15 04:59:32;;;;;;;3.92;1.70;;;;;;;23.23;37.41;100938.81;4982769;28;20045;-50
2023/12/15 05:01:57;;;;;;;3.78;1.80;;;;;;;23.22;37.59;100940.03;4987205;28;20174;-48
2023/12/15 05:04:22;;;;;;;3.85;1.70;;;;;;;23.20;37.38;100936.94;4992424;28;20038;-49
2023/12/15 05:06:48;;;;;;;3.25;1.52;;;;;;;23.23;37.38;100941.56;4988848;28;20022;-47
2023/12/15 05:09:13;;;;;;;4.10;1.92;;;;;;;23.09;36.87;100950.38;4992454;28;20091;-47
2023/12/15 05:11:39;;;;;;;4.32;2.30;;;;;;;22.87;37.09;100951.13;4988830;28;20030;-50
2023/12/15 05:14:04;;;;;;;4.20;2.20;;;;;;;22.72;37.22;100958.34;5001055;28;20023;-48
2023/12/15 05:16:29;;;;;;;4.75;2.40;;;;;;;22.63;37.30;100956.25;4990233;28;20018;-48
2023/12/15 05:18:55;;;;;;;4.90;2.17;;;;;;;22.68;37.43;100963.19;4997031;28;20363;-48
2023/12/15 05:21:20;;;;;;;4.30;2.20;;;;;;;22.60;37.50;100970.91;4993431;28;20023;-47
2023/12/15 05:23:45;;;;;;;5.47;2.40;;;;;;;22.56;37.26;100972.25;4986260;28;20482;-49
2023/12/15 05:26:14;;;;;;;4.53;2.50;;;;;;;22.43;37.23;100968.75;4986357;28;20019;-47
2023/12/15 05:28:39;;;;;;;4.32;2.40;;;;;;;22.46;37.15;100976.13;4989488;28;20018;-47
2023/12/15 05:31:06;;;;;;;5.15;2.40;;;;;;;22.41;37.34;100980.19;4989388;28;20384;-47
2023/12/15 05:33:31;;;;;;;4.50;2.38;;;;;;;22.43;37.49;100982.50;4987156;28;20057;-46
2023/12/15 05:35:57;;;;;;;7.10;2.10;;;;;;;22.49;37.85;100976.00;4986383;28;20026;-47
2023/12/15 05:38:22;;;;;;;4.30;2.20;;;;;;;22.61;37.69;100980.69;4985934;28;20386;-51
2023/12/15 05:40:47;;;;;;;4.55;1.95;;;;;;;22.77;37.50;100987.28;4988947;28;20065;-48
2023/12/15 05:43:13;;;;;;;4.15;1.95;;;;;;;22.89;37.63;100992.75;4988572;28;20033;-48
2023/12/15 05:45:38;;;;;;;3.95;1.95;;;;;;;22.95;37.82;100998.47;4990200;28;20026;-51
2023/12/15 05:48:04;;;;;;;6.10;2.00;;;;;;;22.89;37.46;100995.50;4987144;28;20654;-48
2023/12/15 05:50:29;;;;;;;5.15;2.00;;;;;;;22.93;37.51;100992.63;4986561;28;20026;-47
2023/12/15 05:52:55;;;;;;;5.53;2.55;;;;;;;22.92;37.66;101011.13;4991384;28;20098;-49
2023/12/15 05:55:20;;;;;;;4.18;2.13;;;;;;;22.99;37.48;101018.34;4993195;28;20029;-48
2023/12/15 05:57:45;;;;;;;4.47;1.80;;;;;;;22.99;37.71;101018.34;4990368;28;20492;-47
2023/12/15 06:00:11;;;;;;;4.70;2.00;;;;;;;23.00;37.73;101023.41;4992087;28;20014;-50
2023/12/15 06:02:37;;;;;;;4.95;2.60;;;;;;;22.41;37.01;101021.47;4984002;28;20026;-47
2023/12/15 06:05:02;;;;;;;4.95;2.78;;;;;;;22.00;37.38;101036.91;4988304;28;20029;-49
2023/12/15 06:07:28;;;;;;;5.15;2.80;;;;;;;21.55;37.94;101039.81;4989764;28;20548;-48
2023/12/15 06:09:53;;;;;;;5.40;3.10;;;;;;;21.34;38.84;101040.41;4990161;28;20492;-48
2023/12/15 06:12:18;;;;;;;6.30;3.65;;;;;;;21.28;38.22;101047.63;4990171;28;20036;-48
2023/12/15 06:14:44;;;;;;;5.63;3.50;;;;;;;21.15;39.09;101049.53;4984317;28;20022;-51
2023/12/15 06:17:10;;;;;;;6.72;3.60;;;;;;;20.94;39.46;101051.63;4987036;28;20072;-50
2023/12/15 06:19:38;;;;;;;5.53;3.10;;;;;;;20.92;38.27;101065.00;4991122;28;20021;-47
2023/12/15 06:22:03;;;;;;;5.82;3.30;;;;;;;20.89;39.27;101057.63;4994973;28;20603;-49
2023/12/15 06:24:29;;;;;;;5.53;3.10;;;;;;;20.81;39.48;101064.50;4998101;28;20072;-47
2023/12/15 06:26:54;;;;;;;6.57;3.70;;;;;;;20.72;39.98;101067.09;4982955;28;20027;-46
2023/12/15 06:29:19;;;;;;;6.30;3.25;;;;;;;20.73;39.38;101063.16;4990560;28;20022;-47
2023/12/15 06:31:48;;;;;;;6.57;3.70;;;;;;;20.48;39.73;101079.44;4989508;28;20608;-47
2023/12/15 06:34:13;;;;;;;6.13;3.42;;;;;;;20.50;40.08;101077.03;4996416;28;20476;-47
2023/12/15 06:36:39;;;;;;;6.15;3.75;;;;;;;20.41;39.41;101087.81;4996919;28;20032;-48
2023/12/15 06:39:04;;;;;;;8.23;3.88;;;;;;;20.52;39.03;101083.63;4982092;28;20690;-48
2023/12/15 06:41:30;;;;;;;9.38;4.50;;;;;;;20.29;40.02;101091.97;4987165;28;20057;-47
2023/12/15 06:43:55;;;;;;;7.82;3.72;;;;;;;20.56;40.88;101097.28;4988916;28;20033;-45
2023/12/15 06:46:21;;;;;;;9.35;3.65;;;;;;;20.45;40.22;101102.22;4993808;28;20555;-46
2023/12/15 06:48:46;;;;;;;6.22;3.67;;;;;;;20.58;40.08;101106.59;4988892;28;20026;-46
2023/12/15 06:51:11;;;;;;;7.10;3.90;;;;;;;20.35;40.57;101100.47;4982316;28;20018;-45
2023/12/15 06:53:37;;;;;;;7.53;4.05;;;;;;;20.16;40.13;101111.06;4988168;28;20022;-45
2023/12/15 06:56:02;;;;;;;7.70;3.88;;;;;;;20.46;40.26;101112.78;4994205;28;20137;-46
2023/12/15 06:58:28;;;;;;;7.38;4.43;;;;;;;20.30;40.14;101124.47;4988643;28;20054;-45
2023/12/15 07:00:53;;;;;;;8.70;4.20;;;;;;;20.36;39.95;101130.22;4987351;28;20037;-47
2023/12/15 07:03:19;;;;;;;6.97;4.28;;;;;;;20.27;40.19;101130.78;4985750;28;20022;-50
2023/12/15 07:05:44;;;;;;;7.32;4.78;;;;;;;20.18;40.47;101135.31;4986457;28;20478;-45
2023/12/15 07:08:09;;;;;;;6.22;4.10;;;;;;;20.14;40.06;101132.66;4996346;28;20551;-45
2023/12/15 07:10:35;;;;;;;5.88;3.80;;;;;;;20.24;39.91;101126.16;4996137;28;20027;-46
2023/12/15 07:13:00;;;;;;;6.85;4.10;;;;;;;20.11;39.92;101138.22;4988685;28;20025;-46
2023/12/15 07:15:27;;;;;;;7.43;4.70;;;;;;;20.07;40.06;101127.31;4985882;28;20026;-46
2023/12/15 07:17:53;;;;;;;8.15;5.40;;;;;;;20.02;39.92;101132.50;4987404;28;20081;-45
2023/12/15 07:20:19;;;;;;;7.20;4.80;;;;;;;20.25;39.79;101144.16;4991907;28;20058;-47
2023/12/15 07:22:45;;;;;;;6.95;5.10;;;;;;;20.10;40.25;101148.41;4997432;28;20031;-47
2023/12/15 07:25:10;;;;;;;6.93;4.95;;;;;;;20.21;39.77;101148.94;4992634;28;20661;-43
2023/12/15 07:27:35;;;;;;;8.05;5.30;;;;;;;20.32;39.88;101161.66;4985258;28;20033;-47
2023/12/15 07:30:01;;;;;;;7.80;4.70;;;;;;;20.16;39.68;101160.41;4987630;28;20477;-46
2023/12/15 07:32:26;;;;;;;8.25;4.90;;;;;;;20.22;39.96;101157.94;4990619;28;20132;-49
2023/12/15 07:34:52;;;;;;;9.05;5.38;;;;;;;20.20;39.90;101163.06;4990741;28;20034;-46
2023/12/15 07:37:17;;;;;;;9.13;6.50;;;;;;;20.21;39.22;101170.09;4996033;28;20040;-44
2023/12/15 07:39:42;;;;;;;13.30;11.02;;;;;;;20.12;39.89;101178.91;4989028;28;20203;-45
2023/12/15 07:42:08;;;;;;;9.68;7.47;;;;;;;19.99;40.18;101180.72;4989366;28;20034;-44
2023/12/15 07:44:33;;;;;;;9.82;7.97;;;;;;;20.02;40.10;101177.13;4993509;28;20611;-46
2023/12/15 07:46:59;;;;;;;9.77;8.20;;;;;;;20.06;39.73;101186.06;4990306;28;20097;-45
2023/12/15 07:49:24;;;;;;;8.82;7.03;;;;;;;20.00;40.02;101187.75;4993943;28;20022;-47
2023/12/15 07:51:50;;;;;;;9.05;6.50;;;;;;;20.06;39.72;101190.78;4990089;28;20780;-52
2023/12/15 07:54:16;;;;;;;10.25;6.90;;;;;;;19.99;40.05;101188.16;4988809;28;20054;-48
2023/12/15 07:56:41;;;;;;;8.27;6.28;;;;;;;19.76;40.07;101186.28;4990158;28;20077;-43
2023/12/15 07:59:07;;;;;;;8.32;6.05;;;;;;;20.07;39.66;101184.88;4991161;28;20023;-46
2023/12/15 08:01:32;;;;;;;8.70;6.25;;;;;;;19.77;40.28;101185.88;4999801;28;20033;-45
2023/12/15 08:03:58;;;;;;;9.63;7.32;;;;;;;19.89;39.81;101190.72;4991917;28;20052;-46
2023/12/15 08:06:23;;;;;;;8.82;6.82;;;;;;;19.98;39.13;101184.69;4990841;28;20087;-44
2023/12/15 08:08:49;;;;;;;8.40;6.68;;;;;;;20.18;39.71;101190.16;4990862;28;20030;-44
2023/12/15 08:11:14;;;;;;;7.38;5.53;;;;;;;20.15;39.31;101193.75;4993419;28;20092;-46
2023/12/15 08:13:40;;;;;;;8.57;6.13;;;;;;;19.97;39.58;101193.31;4995611;28;20470;-47
2023/12/15 08:16:07;;;;;;;9.23;5.93;;;;;;;20.21;39.50;101208.47;4988429;28;20031;-44
2023/12/15 08:18:32;;;;;;;6.60;4.93;;;;;;;20.36;38.80;101206.22;4986767;28;20441;-42
2023/12/15 08:20:59;;;;;;;6.38;4.55;;;;;;;20.24;38.37;101211.16;4990835;28;20113;-44
2023/12/15 08:23:24;;;;;;;6.70;5.00;;;;;;;20.70;38.59;101219.63;4994051;28;20068;-45
2023/12/15 08:25:50;;;;;;;6.22;4.20;;;;;;;20.43;37.90;101226.06;4987811;28;20026;-47
2023/12/15 08:28:15;;;;;;;7.20;4.55;;;;;;;20.48;38.07;101227.53;4992780;28;20034;-45
2023/12/15 08:30:41;;;;;;;7.70;5.50;;;;;;;20.33;37.89;101235.28;4989490;28;20023;-46
2023/12/15 08:33:06;;;;;;;8.18;5.10;;;;;;;20.39;37.60;101235.56;4987195;28;20025;-45
2023/12/15 08:35:32;;;;;;;9.30;5.40;;;;;;;20.28;38.23;101235.75;4994318;28;20118;-43
2023/12/15 08:37:58;;;;;;;8.23;4.68;;;;;;;20.34;38.84;101249.75;4992929;28;20381;-45
2023/12/15 08:40:23;;;;;;;7.60;4.63;;;;;;;20.32;37.84;101249.41;4987491;28;20077;-44
2023/12/15 08:42:48;;;;;;;7.05;4.05;;;;;;;20.32;38.09;101254.88;4989508;28;20069;-44
2023/12/15 08:45:14;;;;;;;7.03;4.20;;;;;;;20.26;38.72;101258.13;4987440;28;20393;-43
2023/12/15 08:47:39;;;;;;;7.70;3.80;;;;;;;20.33;38.13;101253.69;4992813;28;20088;-44
2023/12/15 08:50:05;;;;;;;6.22;3.75;;;;;;;20.06;38.42;101259.31;4988203;28;20072;-44
2023/12/15 08:52:30;;;;;;;6.35;3.65;;;;;;;20.13;37.96;101256.44;4991552;28;20061;-46
2023/12/15 08:54:56;;;;;;;6.45;3.47;;;;;;;20.15;38.19;101249.34;4989475;28;20036;-43
2023/12/15 08:57:21;;;;;;;6.22;3.63;;;;;;;20.27;37.80;101245.94;4984052;28;20474;-45
2023/12/15 08:59:46;;;;;;;5.90;3.45;;;;;;;20.28;37.25;101249.47;4992947;28;20022;-44
2023/12/15 09:02:12;;;;;;;5.88;3.58;;;;;;;20.11;37.53;101259.59;4989002;28;20010;-45
2023/12/15 09:04:37;;;;;;;6.13;3.50;;;;;;;20.08;38.32;101256.91;4984695;28;20031;-44
2023/12/15 09:07:03;;;;;;;5.60;3.25;;;;;;;19.94;38.35;101247.00;4981211;28;20092;-46
2023/12/15 09:09:28;;;;;;;5.75;3.10;;;;;;;20.01;38.61;101249.59;4989005;28;20393;-43
2023/12/15 09:11:54;;;;;;;5.55;3.40;;;;;;;20.01;38.13;101252.34;4988399;28;20390;-43
2023/12/15 09:14:21;;;;;;;4.72;2.90;;;;;;;20.04;38.23;101258.94;4989297;28;20080;-46
2023/12/15 09:16:47;;;;;;;5.57;3.28;;;;;;;19.93;38.14;101262.69;4985917;28;20025;-44
2023/12/15 09:19:12;;;;;;;5.55;3.17;;;;;;;20.07;38.55;101269.84;4989343;28;20399;-44
2023/12/15 09:21:38;;;;;;;5.10;3.00;;;;;;;20.03;38.43;101273.84;4988767;28;20026;-44
2023/12/15 09:24:03;;;;;;;6.15;3.60;;;;;;;19.96;38.13;101280.25;4985692;28;20030;-43
2023/12/15 09:26:28;;;;;;;5.30;3.20;;;;;;;19.95;37.65;101276.72;4995650;28;20212;-43
2023/12/15 09:28:54;;;;;;;5.85;3.15;;;;;;;19.89;37.95;101283.88;4991468;28;20032;-44
2023/12/15 09:31:19;;;;;;;6.40;3.30;;;;;;;20.27;38.88;101300.03;4985878;28;20022;-43
2023/12/15 09:33:44;;;;;;;6.32;2.95;;;;;;;19.88;38.24;101298.00;4985942;28;20029;-43
2023/12/15 09:36:10;;;;;;;4.75;2.65;;;;;;;19.99;38.79;101290.34;4993374;28;20038;-44
2023/12/15 09:38:36;;;;;;;5.53;2.90;;;;;;;20.03;38.57;101288.31;4992023;28;20022;-46
2023/12/15 09:41:01;;;;;;;5.13;3.13;;;;;;;20.10;38.94;101295.66;4987096;28;20091;-44
2023/12/15 09:43:27;;;;;;;5.75;3.30;;;;;;;20.06;38.24;101290.22;4988306;28;20022;-47
2023/12/15 09:45:52;;;;;;;6.40;3.35;;;;;;;20.03;38.05;101295.78;4987675;28;20038;-46
2023/12/15 09:48:17;;;;;;;5.95;3.10;;;;;;;20.10;38.43;101295.66;5007662;28;20022;-43
2023/12/15 09:50:46;;;;;;;6.28;3.58;;;;;;;19.88;39.29;101292.53;4993191;28;20038;-43
2023/12/15 09:53:12;;;;;;;6.35;2.72;;;;;;;20.07;38.92;101291.78;4967045;28;20469;-44
2023/12/15 09:55:37;;;;;;;6.65;3.10;;;;;;;19.89;38.98;101302.28;4985725;28;20037;-46
2023/12/15 09:58:02;;;;;;;5.43;3.00;;;;;;;19.83;38.94;101301.22;4986020;28;20030;-45
2023/12/15 10:00:28;;;;;;;5.97;3.28;;;;;;;20.11;38.68;101303.47;4985748;28;20026;-44
2023/12/15 10:02:54;;;;;;;5.70;3.10;;;;;;;20.01;38.72;101304.41;4968270;28;20035;-45
2023/12/15 10:05:19;;;;;;;6.18;3.10;;;;;;;20.02;38.33;101305.97;4992170;28;20544;-43
2023/12/15 10:07:44;;;;;;;5.72;2.97;;;;;;;20.05;38.45;101310.59;4990874;28;20033;-43
2023/12/15 10:10:11;;;;;;;5.40;2.95;;;;;;;20.14;38.86;101312.81;4970864;28;20034;-44
2023/12/15 10:12:36;;;;;;;5.95;3.20;;;;;;;19.92;38.76;101307.72;4984765;28;20081;-43
2023/12/15 10:15:02;;;;;;;8.52;3.30;;;;;;;20.02;39.32;101311.44;4987418;28;20030;-43
2023/12/15 10:17:27;;;;;;;4.80;2.80;;;;;;;20.07;38.73;101319.19;4994382;28;20033;-44
2023/12/15 10:20:06;;;;;;;5.57;3.20;;;;;;;20.03;39.37;101318.47;4989327;28;20464;-43
2023/12/15 10:22:32;;;;;;;5.32;3.50;;;;;;;20.05;39.23;101321.56;4987728;28;20026;-44
2023/12/15 10:24:57;;;;;;;5.28;3.00;;;;;;;20.01;38.70;101320.09;4988861;28;20034;-45
2023/12/15 10:27:23;;;;;;;5.10;3.00;;;;;;;20.10;38.89;101323.84;4988039;28;20026;-43
2023/12/15 10:29:48;;;;;;;5.15;2.90;;;;;;;20.14;38.51;101316.31;4989507;28;20396;-44
2023/12/15 10:32:15;;;;;;;4.82;2.75;;;;;;;20.06;38.61;101323.13;4989366;28;20036;-43
2023/12/15 10:34:40;;;;;;;4.95;2.78;;;;;;;20.08;39.01;101331.69;4988130;28;20564;-46
2023/12/15 10:37:05;;;;;;;5.68;2.67;;;;;;;20.31;38.38;101330.91;5007761;28;20030;-40
2023/12/15 10:39:31;;;;;;;6.68;3.00;;;;;;;20.40;38.12;101338.59;4995931;28;20018;-43
2023/12/15 10:41:57;;;;;;;5.10;2.90;;;;;;;20.14;38.49;101341.00;4995549;28;20044;-49
2023/12/15 10:44:22;;;;;;;6.88;2.90;;;;;;;20.31;38.18;101333.63;4990789;28;20103;-45
2023/12/15 10:46:48;;;;;;;5.60;2.97;;;;;;;20.43;38.26;101343.22;4975625;28;20401;-44
2023/12/15 10:49:13;;;;;;;6.60;3.70;;;;;;;20.30;38.02;101346.56;4993497;28;20103;-44
2023/12/15 10:51:42;;;;;;;5.63;3.30;;;;;;;20.37;37.91;101344.94;4989919;28;20028;-46
2023/12/15 10:54:11;;;;;;;5.20;2.83;;;;;;;20.34;38.35;101343.78;4992195;28;20571;-42
2023/12/15 10:56:37;;;;;;;5.10;2.90;;;;;;;20.41;38.27;101345.63;4990602;28;20105;-46
2023/12/15 10:59:05;;;;;;;5.35;2.90;;;;;;;20.28;37.45;101346.22;4986135;28;20041;-45
2023/12/15 11:01:30;;;;;;;;;;;;;;;20.41;37.63;101345.63;4988349;28;20943;-46
2023/12/15 11:03:56;;;;;;;5.32;2.95;;;;;;;20.64;37.52;101346.31;4990969;28;19917;-45
2023/12/15 11:06:26;;;;;;;4.88;2.55;;;;;;;20.64;37.79;101348.28;4993715;28;20098;-48
2023/12/15 11:08:51;;;;;;;9.68;4.50;;;;;;;20.71;37.89;101344.66;4991963;28;20026;-49
2023/12/15 11:11:22;;;;;;;11.32;6.50;;;;;;;20.62;37.53;101336.97;4990148;28;20092;-49
2023/12/15 11:13:52;;;;;;;41.50;23.10;;;;;;;20.63;37.34;101333.03;4989243;28;20025;-47
2023/12/15 11:16:18;;;;;;;53.17;29.55;;;;;;;20.66;37.97;101334.94;4987975;28;20478;-46